sensor_id;sensor_type;location;lat;lon;timestamp;P1;durP1;ratioP1;P2;durP2;ratioP2
2662;SDS011;49701;48.072;7.800;2023-12-04T00:02:15;28.30;;;13.73;;
2662;SDS011;49701;48.072;7.800;2023-12-04T00:04:41;27.90;;;12.60;;
2662;SDS011;49701;48.072;7.800;2023-12-04T00:07:07;24.67;;;12.70;;
2662;SDS011;49701;48.072;7.800;2023-12-04T00:09:33;27.17;;;12.80;;
2662;SDS011;49701;48.072;7.800;2023-12-04T00:11:58;29.48;;;14.05;;
2662;SDS011;49701;48.072;7.800;2023-12-04T00:14:24;36.35;;;14.93;;
2662;SDS011;49701;48.072;7.800;2023-12-04T00:16:50;37.35;;;15.25;;
2662;SDS011;49701;48.072;7.800;2023-12-04T00:19:15;37.50;;;14.68;;
2662;SDS011;49701;48.072;7.800;2023-12-04T00:21:41;31.40;;;13.65;;
2662;SDS011;49701;48.072;7.800;2023-12-04T00:24:07;31.52;;;14.13;;
2662;SDS011;49701;48.072;7.800;2023-12-04T00:26:32;31.10;;;14.35;;
2662;SDS011;49701;48.072;7.800;2023-12-04T00:28:58;30.52;;;13.77;;
2662;SDS011;49701;48.072;7.800;2023-12-04T00:31:23;34.17;;;14.32;;
2662;SDS011;49701;48.072;7.800;2023-12-04T00:33:49;28.27;;;13.23;;
2662;SDS011;49701;48.072;7.800;2023-12-04T00:36:15;28.95;;;14.75;;
2662;SDS011;49701;48.072;7.800;2023-12-04T00:38:40;29.77;;;14.18;;
2662;SDS011;49701;48.072;7.800;2023-12-04T00:41:06;24.73;;;13.55;;
2662;SDS011;49701;48.072;7.800;2023-12-04T00:43:32;23.85;;;11.98;;
2662;SDS011;49701;48.072;7.800;2023-12-04T00:45:57;26.58;;;13.35;;
2662;SDS011;49701;48.072;7.800;2023-12-04T00:48:23;23.85;;;12.82;;
2662;SDS011;49701;48.072;7.800;2023-12-04T00:50:50;30.10;;;11.95;;
2662;SDS011;49701;48.072;7.800;2023-12-04T00:53:16;24.90;;;13.07;;
2662;SDS011;49701;48.072;7.800;2023-12-04T00:55:42;26.05;;;13.38;;
2662;SDS011;49701;48.072;7.800;2023-12-04T00:58:08;27.98;;;13.13;;
2662;SDS011;49701;48.072;7.800;2023-12-04T01:00:33;25.48;;;12.25;;
2662;SDS011;49701;48.072;7.800;2023-12-04T01:02:59;26.25;;;12.95;;
2662;SDS011;49701;48.072;7.800;2023-12-04T01:05:24;27.02;;;13.70;;
2662;SDS011;49701;48.072;7.800;2023-12-04T01:07:50;29.02;;;13.85;;
2662;SDS011;49701;48.072;7.800;2023-12-04T01:10:16;25.60;;;12.85;;
2662;SDS011;49701;48.072;7.800;2023-12-04T01:12:42;25.30;;;13.38;;
2662;SDS011;49701;48.072;7.800;2023-12-04T01:15:07;27.50;;;13.45;;
2662;SDS011;49701;48.072;7.800;2023-12-04T01:17:34;24.63;;;12.70;;
2662;SDS011;49701;48.072;7.800;2023-12-04T01:20:00;24.65;;;12.75;;
2662;SDS011;49701;48.072;7.800;2023-12-04T01:22:26;28.67;;;13.77;;
2662;SDS011;49701;48.072;7.800;2023-12-04T01:24:51;28.38;;;14.00;;
2662;SDS011;49701;48.072;7.800;2023-12-04T01:27:17;28.63;;;13.80;;
2662;SDS011;49701;48.072;7.800;2023-12-04T01:29:43;31.85;;;14.88;;
2662;SDS011;49701;48.072;7.800;2023-12-04T01:32:09;33.60;;;15.60;;
2662;SDS011;49701;48.072;7.800;2023-12-04T01:34:34;32.47;;;15.13;;
2662;SDS011;49701;48.072;7.800;2023-12-04T01:37:00;32.42;;;15.68;;
2662;SDS011;49701;48.072;7.800;2023-12-04T01:39:25;35.15;;;15.90;;
2662;SDS011;49701;48.072;7.800;2023-12-04T01:41:51;28.70;;;14.20;;
2662;SDS011;49701;48.072;7.800;2023-12-04T01:44:17;30.55;;;14.35;;
2662;SDS011;49701;48.072;7.800;2023-12-04T01:46:43;25.52;;;13.35;;
2662;SDS011;49701;48.072;7.800;2023-12-04T01:49:08;29.60;;;14.55;;
2662;SDS011;49701;48.072;7.800;2023-12-04T01:51:34;27.58;;;13.38;;
2662;SDS011;49701;48.072;7.800;2023-12-04T01:54:01;29.33;;;14.43;;
2662;SDS011;49701;48.072;7.800;2023-12-04T01:56:29;29.42;;;14.73;;
2662;SDS011;49701;48.072;7.800;2023-12-04T01:58:55;25.83;;;13.23;;
2662;SDS011;49701;48.072;7.800;2023-12-04T02:01:24;30.88;;;13.82;;
2662;SDS011;49701;48.072;7.800;2023-12-04T02:03:51;31.10;;;13.23;;
2662;SDS011;49701;48.072;7.800;2023-12-04T02:06:17;26.27;;;13.10;;
2662;SDS011;49701;48.072;7.800;2023-12-04T02:08:46;27.75;;;13.30;;
2662;SDS011;49701;48.072;7.800;2023-12-04T02:11:12;25.92;;;13.65;;
2662;SDS011;49701;48.072;7.800;2023-12-04T02:13:38;26.63;;;13.57;;
2662;SDS011;49701;48.072;7.800;2023-12-04T02:16:04;26.08;;;13.85;;
2662;SDS011;49701;48.072;7.800;2023-12-04T02:18:34;30.15;;;13.38;;
2662;SDS011;49701;48.072;7.800;2023-12-04T02:21:00;22.95;;;12.82;;
2662;SDS011;49701;48.072;7.800;2023-12-04T02:23:27;26.00;;;13.02;;
2662;SDS011;49701;48.072;7.800;2023-12-04T02:25:59;27.30;;;12.48;;
2662;SDS011;49701;48.072;7.800;2023-12-04T02:28:32;24.45;;;13.45;;
2662;SDS011;49701;48.072;7.800;2023-12-04T02:30:59;27.77;;;13.60;;
2662;SDS011;49701;48.072;7.800;2023-12-04T02:33:26;24.10;;;12.65;;
2662;SDS011;49701;48.072;7.800;2023-12-04T02:35:52;26.30;;;13.35;;
2662;SDS011;49701;48.072;7.800;2023-12-04T02:38:19;27.23;;;13.80;;
2662;SDS011;49701;48.072;7.800;2023-12-04T02:40:45;25.00;;;13.27;;
2662;SDS011;49701;48.072;7.800;2023-12-04T02:43:11;32.28;;;13.60;;
2662;SDS011;49701;48.072;7.800;2023-12-04T02:45:37;28.85;;;13.30;;
2662;SDS011;49701;48.072;7.800;2023-12-04T02:48:03;28.58;;;14.00;;
2662;SDS011;49701;48.072;7.800;2023-12-04T02:50:28;27.20;;;13.57;;
2662;SDS011;49701;48.072;7.800;2023-12-04T02:52:54;29.75;;;15.10;;
2662;SDS011;49701;48.072;7.800;2023-12-04T02:55:20;34.90;;;15.50;;
2662;SDS011;49701;48.072;7.800;2023-12-04T02:57:45;36.08;;;15.73;;
2662;SDS011;49701;48.072;7.800;2023-12-04T03:00:11;32.05;;;15.90;;
2662;SDS011;49701;48.072;7.800;2023-12-04T03:02:37;27.80;;;14.57;;
2662;SDS011;49701;48.072;7.800;2023-12-04T03:05:03;30.35;;;14.68;;
2662;SDS011;49701;48.072;7.800;2023-12-04T03:07:29;30.83;;;15.23;;
2662;SDS011;49701;48.072;7.800;2023-12-04T03:09:54;29.52;;;14.45;;
2662;SDS011;49701;48.072;7.800;2023-12-04T03:12:20;29.27;;;14.50;;
2662;SDS011;49701;48.072;7.800;2023-12-04T03:14:46;32.83;;;14.90;;
2662;SDS011;49701;48.072;7.800;2023-12-04T03:17:11;27.27;;;14.48;;
2662;SDS011;49701;48.072;7.800;2023-12-04T03:19:37;31.98;;;14.57;;
2662;SDS011;49701;48.072;7.800;2023-12-04T03:22:03;27.90;;;13.85;;
2662;SDS011;49701;48.072;7.800;2023-12-04T03:24:28;25.50;;;13.05;;
2662;SDS011;49701;48.072;7.800;2023-12-04T03:26:54;24.02;;;12.38;;
2662;SDS011;49701;48.072;7.800;2023-12-04T03:29:20;24.42;;;12.68;;
2662;SDS011;49701;48.072;7.800;2023-12-04T03:31:45;24.50;;;12.75;;
2662;SDS011;49701;48.072;7.800;2023-12-04T03:34:11;23.90;;;12.75;;
2662;SDS011;49701;48.072;7.800;2023-12-04T03:36:36;28.08;;;12.57;;
2662;SDS011;49701;48.072;7.800;2023-12-04T03:39:02;23.42;;;11.95;;
2662;SDS011;49701;48.072;7.800;2023-12-04T03:41:28;26.60;;;13.20;;
2662;SDS011;49701;48.072;7.800;2023-12-04T03:43:53;27.05;;;13.30;;
2662;SDS011;49701;48.072;7.800;2023-12-04T03:46:19;25.00;;;12.35;;
2662;SDS011;49701;48.072;7.800;2023-12-04T03:48:45;26.35;;;12.82;;
2662;SDS011;49701;48.072;7.800;2023-12-04T03:51:10;25.33;;;11.07;;
2662;SDS011;49701;48.072;7.800;2023-12-04T03:53:36;24.38;;;11.88;;
2662;SDS011;49701;48.072;7.800;2023-12-04T03:56:02;22.60;;;11.40;;
2662;SDS011;49701;48.072;7.800;2023-12-04T03:58:28;23.92;;;11.82;;
2662;SDS011;49701;48.072;7.800;2023-12-04T04:00:53;22.70;;;11.30;;
2662;SDS011;49701;48.072;7.800;2023-12-04T04:03:19;22.73;;;10.88;;
2662;SDS011;49701;48.072;7.800;2023-12-04T04:05:44;19.63;;;10.32;;
2662;SDS011;49701;48.072;7.800;2023-12-04T04:08:10;21.60;;;10.75;;
2662;SDS011;49701;48.072;7.800;2023-12-04T04:10:36;21.50;;;11.20;;
2662;SDS011;49701;48.072;7.800;2023-12-04T04:13:02;22.38;;;10.38;;
2662;SDS011;49701;48.072;7.800;2023-12-04T04:15:27;22.15;;;10.73;;
2662;SDS011;49701;48.072;7.800;2023-12-04T04:17:53;21.73;;;10.65;;
2662;SDS011;49701;48.072;7.800;2023-12-04T04:20:19;22.20;;;11.82;;
2662;SDS011;49701;48.072;7.800;2023-12-04T04:22:47;21.17;;;10.90;;
2662;SDS011;49701;48.072;7.800;2023-12-04T04:25:13;19.73;;;10.73;;
2662;SDS011;49701;48.072;7.800;2023-12-04T04:27:39;25.15;;;11.25;;
2662;SDS011;49701;48.072;7.800;2023-12-04T04:30:05;21.50;;;10.80;;
2662;SDS011;49701;48.072;7.800;2023-12-04T04:32:31;19.67;;;10.07;;
2662;SDS011;49701;48.072;7.800;2023-12-04T04:34:57;20.88;;;10.43;;
2662;SDS011;49701;48.072;7.800;2023-12-04T04:37:22;24.00;;;10.85;;
2662;SDS011;49701;48.072;7.800;2023-12-04T04:39:48;20.98;;;11.00;;
2662;SDS011;49701;48.072;7.800;2023-12-04T04:42:14;23.50;;;11.43;;
2662;SDS011;49701;48.072;7.800;2023-12-04T04:44:39;23.42;;;11.52;;
2662;SDS011;49701;48.072;7.800;2023-12-04T04:47:05;25.75;;;12.85;;
2662;SDS011;49701;48.072;7.800;2023-12-04T04:49:31;25.85;;;12.77;;
2662;SDS011;49701;48.072;7.800;2023-12-04T04:51:56;29.27;;;14.13;;
2662;SDS011;49701;48.072;7.800;2023-12-04T04:54:22;32.13;;;14.20;;
2662;SDS011;49701;48.072;7.800;2023-12-04T04:56:48;28.88;;;15.15;;
2662;SDS011;49701;48.072;7.800;2023-12-04T04:59:13;34.97;;;17.17;;
2662;SDS011;49701;48.072;7.800;2023-12-04T05:01:39;33.65;;;15.75;;
2662;SDS011;49701;48.072;7.800;2023-12-04T05:04:05;31.42;;;16.50;;
2662;SDS011;49701;48.072;7.800;2023-12-04T05:06:30;33.10;;;16.42;;
2662;SDS011;49701;48.072;7.800;2023-12-04T05:08:56;36.50;;;16.70;;
2662;SDS011;49701;48.072;7.800;2023-12-04T05:11:22;35.28;;;17.27;;
2662;SDS011;49701;48.072;7.800;2023-12-04T05:13:48;31.88;;;16.83;;
2662;SDS011;49701;48.072;7.800;2023-12-04T05:16:15;35.17;;;16.80;;
2662;SDS011;49701;48.072;7.800;2023-12-04T05:18:40;35.10;;;17.17;;
2662;SDS011;49701;48.072;7.800;2023-12-04T05:21:10;31.20;;;16.30;;
2662;SDS011;49701;48.072;7.800;2023-12-04T05:23:39;77.00;;;31.67;;
2662;SDS011;49701;48.072;7.800;2023-12-04T05:26:05;57.17;;;25.67;;
2662;SDS011;49701;48.072;7.800;2023-12-04T05:28:32;56.35;;;25.80;;
2662;SDS011;49701;48.072;7.800;2023-12-04T05:30:58;59.10;;;26.63;;
2662;SDS011;49701;48.072;7.800;2023-12-04T05:33:23;39.83;;;18.63;;
2662;SDS011;49701;48.072;7.800;2023-12-04T05:35:49;35.08;;;16.77;;
2662;SDS011;49701;48.072;7.800;2023-12-04T05:38:18;34.83;;;16.77;;
2662;SDS011;49701;48.072;7.800;2023-12-04T05:40:43;38.05;;;17.75;;
2662;SDS011;49701;48.072;7.800;2023-12-04T05:43:09;35.60;;;17.75;;
2662;SDS011;49701;48.072;7.800;2023-12-04T05:45:35;36.20;;;17.38;;
2662;SDS011;49701;48.072;7.800;2023-12-04T05:48:01;36.95;;;17.15;;
2662;SDS011;49701;48.072;7.800;2023-12-04T05:50:27;36.10;;;17.33;;
2662;SDS011;49701;48.072;7.800;2023-12-04T05:52:52;39.38;;;17.55;;
2662;SDS011;49701;48.072;7.800;2023-12-04T05:55:18;37.17;;;18.17;;
2662;SDS011;49701;48.072;7.800;2023-12-04T05:57:45;35.50;;;16.85;;
2662;SDS011;49701;48.072;7.800;2023-12-04T06:00:11;33.92;;;16.17;;
2662;SDS011;49701;48.072;7.800;2023-12-04T06:02:43;33.60;;;16.75;;
2662;SDS011;49701;48.072;7.800;2023-12-04T06:05:10;35.80;;;16.60;;
2662;SDS011;49701;48.072;7.800;2023-12-04T06:07:36;34.15;;;16.98;;
2662;SDS011;49701;48.072;7.800;2023-12-04T06:10:02;31.65;;;16.33;;
2662;SDS011;49701;48.072;7.800;2023-12-04T06:12:31;37.17;;;17.83;;
2662;SDS011;49701;48.072;7.800;2023-12-04T06:14:57;36.97;;;19.65;;
2662;SDS011;49701;48.072;7.800;2023-12-04T06:17:23;40.83;;;19.15;;
2662;SDS011;49701;48.072;7.800;2023-12-04T06:19:53;44.05;;;19.05;;
2662;SDS011;49701;48.072;7.800;2023-12-04T06:22:19;35.92;;;18.90;;
2662;SDS011;49701;48.072;7.800;2023-12-04T06:24:46;37.95;;;18.67;;
2662;SDS011;49701;48.072;7.800;2023-12-04T06:27:16;34.50;;;17.40;;
2662;SDS011;49701;48.072;7.800;2023-12-04T06:29:46;38.30;;;18.98;;
2662;SDS011;49701;48.072;7.800;2023-12-04T06:32:12;42.38;;;20.60;;
2662;SDS011;49701;48.072;7.800;2023-12-04T06:34:38;38.40;;;19.13;;
2662;SDS011;49701;48.072;7.800;2023-12-04T06:37:13;40.55;;;17.95;;
2662;SDS011;49701;48.072;7.800;2023-12-04T06:39:40;42.22;;;19.83;;
2662;SDS011;49701;48.072;7.800;2023-12-04T06:42:06;37.45;;;19.42;;
2662;SDS011;49701;48.072;7.800;2023-12-04T06:44:33;40.50;;;19.05;;
2662;SDS011;49701;48.072;7.800;2023-12-04T06:47:00;43.20;;;19.42;;
2662;SDS011;49701;48.072;7.800;2023-12-04T06:49:30;38.42;;;18.77;;
2662;SDS011;49701;48.072;7.800;2023-12-04T06:51:57;40.00;;;19.38;;
2662;SDS011;49701;48.072;7.800;2023-12-04T06:54:24;37.15;;;19.55;;
2662;SDS011;49701;48.072;7.800;2023-12-04T06:56:50;42.20;;;19.85;;
2662;SDS011;49701;48.072;7.800;2023-12-04T06:59:15;39.00;;;20.25;;
2662;SDS011;49701;48.072;7.800;2023-12-04T07:01:42;37.28;;;19.48;;
2662;SDS011;49701;48.072;7.800;2023-12-04T07:04:08;46.83;;;20.58;;
2662;SDS011;49701;48.072;7.800;2023-12-04T07:06:37;42.08;;;20.38;;
2662;SDS011;49701;48.072;7.800;2023-12-04T07:09:06;46.67;;;20.40;;
2662;SDS011;49701;48.072;7.800;2023-12-04T07:11:34;44.80;;;20.13;;
2662;SDS011;49701;48.072;7.800;2023-12-04T07:14:00;42.70;;;20.35;;
2662;SDS011;49701;48.072;7.800;2023-12-04T07:16:26;42.28;;;20.23;;
2662;SDS011;49701;48.072;7.800;2023-12-04T07:18:51;38.22;;;19.23;;
2662;SDS011;49701;48.072;7.800;2023-12-04T07:21:17;41.22;;;18.63;;
2662;SDS011;49701;48.072;7.800;2023-12-04T07:23:45;41.85;;;19.30;;
2662;SDS011;49701;48.072;7.800;2023-12-04T07:26:12;39.92;;;19.45;;
2662;SDS011;49701;48.072;7.800;2023-12-04T07:28:38;43.05;;;19.13;;
2662;SDS011;49701;48.072;7.800;2023-12-04T07:31:04;41.05;;;19.17;;
2662;SDS011;49701;48.072;7.800;2023-12-04T07:33:29;38.97;;;19.40;;
2662;SDS011;49701;48.072;7.800;2023-12-04T07:35:55;40.13;;;19.15;;
2662;SDS011;49701;48.072;7.800;2023-12-04T07:38:21;38.08;;;18.80;;
2662;SDS011;49701;48.072;7.800;2023-12-04T07:40:47;37.72;;;19.85;;
2662;SDS011;49701;48.072;7.800;2023-12-04T07:43:13;38.83;;;19.08;;
2662;SDS011;49701;48.072;7.800;2023-12-04T07:45:41;41.35;;;18.70;;
2662;SDS011;49701;48.072;7.800;2023-12-04T07:48:07;42.63;;;19.40;;
2662;SDS011;49701;48.072;7.800;2023-12-04T07:50:33;39.22;;;19.10;;
2662;SDS011;49701;48.072;7.800;2023-12-04T07:55:29;36.65;;;17.45;;
2662;SDS011;49701;48.072;7.800;2023-12-04T07:57:59;45.03;;;19.85;;
2662;SDS011;49701;48.072;7.800;2023-12-04T08:00:28;43.10;;;20.35;;
2662;SDS011;49701;48.072;7.800;2023-12-04T08:02:54;45.53;;;20.23;;
2662;SDS011;49701;48.072;7.800;2023-12-04T08:05:24;42.97;;;20.75;;
2662;SDS011;49701;48.072;7.800;2023-12-04T08:07:56;42.28;;;20.73;;
2662;SDS011;49701;48.072;7.800;2023-12-04T08:10:23;48.97;;;21.25;;
2662;SDS011;49701;48.072;7.800;2023-12-04T08:12:49;37.17;;;16.70;;
2662;SDS011;49701;48.072;7.800;2023-12-04T08:15:18;44.50;;;21.48;;
2662;SDS011;49701;48.072;7.800;2023-12-04T08:17:44;47.47;;;20.88;;
2662;SDS011;49701;48.072;7.800;2023-12-04T08:20:10;38.72;;;18.65;;
2662;SDS011;49701;48.072;7.800;2023-12-04T08:22:40;43.40;;;21.83;;
2662;SDS011;49701;48.072;7.800;2023-12-04T08:25:07;40.15;;;19.45;;
2662;SDS011;49701;48.072;7.800;2023-12-04T08:27:36;48.92;;;20.92;;
2662;SDS011;49701;48.072;7.800;2023-12-04T08:30:03;34.63;;;15.02;;
2662;SDS011;49701;48.072;7.800;2023-12-04T08:32:30;42.67;;;18.90;;
2662;SDS011;49701;48.072;7.800;2023-12-04T08:34:56;41.75;;;18.98;;
2662;SDS011;49701;48.072;7.800;2023-12-04T08:37:22;39.95;;;18.80;;
2662;SDS011;49701;48.072;7.800;2023-12-04T08:39:48;35.42;;;17.25;;
2662;SDS011;49701;48.072;7.800;2023-12-04T08:42:14;43.13;;;19.88;;
2662;SDS011;49701;48.072;7.800;2023-12-04T08:44:41;36.08;;;17.65;;
2662;SDS011;49701;48.072;7.800;2023-12-04T08:47:07;39.70;;;19.25;;
2662;SDS011;49701;48.072;7.800;2023-12-04T08:49:33;46.22;;;20.90;;
2662;SDS011;49701;48.072;7.800;2023-12-04T08:51:59;45.70;;;21.20;;
2662;SDS011;49701;48.072;7.800;2023-12-04T21:23:23;35.53;;;19.98;;
2662;SDS011;49701;48.072;7.800;2023-12-04T21:25:51;36.50;;;20.02;;
2662;SDS011;49701;48.072;7.800;2023-12-04T21:28:17;38.67;;;20.38;;
